createdAt,value
2022-10-26T00:02:10.978Z,11.84
2022-10-26T00:04:42.638Z,11.83
2022-10-26T00:07:10.658Z,11.76
2022-10-26T00:09:38.628Z,11.77
2022-10-26T00:12:11.753Z,11.74
2022-10-26T00:14:38.663Z,11.65
2022-10-26T00:17:32.215Z,11.73
2022-10-26T00:20:00.675Z,11.73
2022-10-26T00:22:32.611Z,11.70
2022-10-26T00:25:06.762Z,11.62
2022-10-26T00:27:34.723Z,11.60
2022-10-26T00:30:07.526Z,11.57
2022-10-26T00:35:21.238Z,11.55
2022-10-26T00:38:16.654Z,11.53
2022-10-26T00:40:44.832Z,11.52
2022-10-26T00:43:34.948Z,11.50
2022-10-26T00:46:05.027Z,11.52
2022-10-26T00:48:51.188Z,11.42
2022-10-26T00:51:24.737Z,11.38
2022-10-26T00:54:00.563Z,11.35
2022-10-26T00:56:29.239Z,11.39
2022-10-26T00:59:02.749Z,11.35
2022-10-26T01:01:37.891Z,11.36
2022-10-26T01:04:04.848Z,11.30
2022-10-26T01:06:34.628Z,11.29
2022-10-26T01:09:03.032Z,11.34
2022-10-26T01:11:30.834Z,11.28
2022-10-26T01:14:25.757Z,11.25
2022-10-26T01:17:19.787Z,11.26
2022-10-26T01:20:25.415Z,11.18
2022-10-26T01:23:01.701Z,11.16
2022-10-26T01:25:48.772Z,11.12
2022-10-26T01:28:53.753Z,11.10
2022-10-26T01:31:34.236Z,11.08
2022-10-26T01:34:25.074Z,11.07
2022-10-26T01:36:56.968Z,11.07
2022-10-26T01:42:27.050Z,11.02
2022-10-26T01:45:06.866Z,11.01
2022-10-26T01:47:37.381Z,11.00
2022-10-26T01:50:06.057Z,10.92
2022-10-26T01:52:33.080Z,10.94
2022-10-26T01:55:30.031Z,10.94
2022-10-26T01:58:44.433Z,10.90
2022-10-26T02:01:48.849Z,10.87
2022-10-26T02:04:28.519Z,10.87
2022-10-26T02:07:07.494Z,10.88
2022-10-26T02:10:01.956Z,10.84
2022-10-26T02:13:01.342Z,10.79
2022-10-26T02:15:28.593Z,10.77
2022-10-26T02:18:20.742Z,10.70
2022-10-26T02:20:53.682Z,10.74
2022-10-26T02:23:28.786Z,10.76
2022-10-26T02:25:59.780Z,10.73
2022-10-26T02:28:35.651Z,10.72
2022-10-26T02:31:10.697Z,10.73
2022-10-26T02:33:41.877Z,10.69
2022-10-26T02:36:18.926Z,10.69
2022-10-26T02:38:48.393Z,10.62
2022-10-26T02:41:18.164Z,10.62
2022-10-26T02:44:00.398Z,10.66
2022-10-26T02:46:28.886Z,10.62
2022-10-26T02:48:57.263Z,10.64
2022-10-26T02:51:39.102Z,10.62
2022-10-26T02:54:34.673Z,10.63
2022-10-26T02:57:17.104Z,10.60
2022-10-26T02:59:52.695Z,10.62
2022-10-26T03:02:22.167Z,10.59
2022-10-26T03:04:51.209Z,10.56
2022-10-26T03:07:42.590Z,10.55
2022-10-26T03:10:44.977Z,10.56
2022-10-26T03:13:16.667Z,10.49
2022-10-26T03:15:44.619Z,10.50
2022-10-26T03:18:12.659Z,10.46
2022-10-26T03:20:45.850Z,10.49
2022-10-26T03:23:12.602Z,10.46
2022-10-26T03:25:44.621Z,10.45
2022-10-26T03:28:12.669Z,10.42
2022-10-26T03:30:40.665Z,10.46
2022-10-26T03:33:13.702Z,10.45
2022-10-26T03:36:07.448Z,10.43
2022-10-26T03:38:34.724Z,10.42
2022-10-26T03:41:07.685Z,10.39
2022-10-26T03:43:34.622Z,10.40
2022-10-26T03:46:02.621Z,10.37
2022-10-26T03:51:27.604Z,10.39
2022-10-26T03:53:54.743Z,10.39
2022-10-26T03:56:22.672Z,10.32
2022-10-26T03:58:55.687Z,10.35
2022-10-26T04:01:22.828Z,10.30
2022-10-26T04:03:50.690Z,10.26
2022-10-26T04:09:12.588Z,10.25
2022-10-26T04:11:40.610Z,10.24
2022-10-26T04:14:08.621Z,10.18
2022-10-26T04:19:54.628Z,10.14
2022-10-26T04:22:27.709Z,10.17
2022-10-26T04:27:46.821Z,10.12
2022-10-26T04:30:14.677Z,10.14
2022-10-26T04:32:46.967Z,10.12
2022-10-26T04:35:16.597Z,10.09
2022-10-26T04:37:51.732Z,10.07
2022-10-26T04:40:20.609Z,10.07
2022-10-26T04:45:40.637Z,10.02
2022-10-26T04:48:13.632Z,9.99
2022-10-26T04:50:41.060Z,9.97
2022-10-26T04:53:14.676Z,10.01
2022-10-26T04:55:42.856Z,9.95
2022-10-26T04:58:10.607Z,9.94
2022-10-26T05:00:38.739Z,9.95
2022-10-26T05:03:11.672Z,9.93
2022-10-26T05:05:38.805Z,9.88
2022-10-26T05:08:06.861Z,9.88
2022-10-26T05:10:34.758Z,9.88
2022-10-26T05:13:06.736Z,9.86
2022-10-26T05:15:34.592Z,9.84
2022-10-26T05:18:28.644Z,9.80
2022-10-26T05:20:56.694Z,9.83
2022-10-26T05:23:24.703Z,9.77
2022-10-26T05:25:57.075Z,9.77
2022-10-26T05:28:24.755Z,9.77
